Portada
METAR-TAF:

METAR-TAF

Aeroports :

Katima Mulilo, Namíbia

latitud: 17-38-04S, longitud: 024-10-36E, altitud: 985 m

Observació

L'informe es va fer fa 1 hora i 27 minuts, a les 03:00 UTC
Vent calma
Temperatura 6°C
Humitat 81%
Pressió 1023 hPa

METAR: FYKM 250300Z AUTO 00000KT //// // ////// 06/03 Q1023

Hora: 06:27 (04:27 UTC)

Pronòstic

L'informe es va fer fa 11 hores i 27 minuts, a les 17:00 UTC
Pronòstic vàlid del 24 a les 18 UTC al 25 a les 03 UTC
Vent 4 kt del Est/Sud-Est
Visibilitat 10 km o més
sense núvols per sota de 1500 mi sense presència de cumulonimbus.

TAF: FYKM 241700Z 2418/2503 12004KT CAVOK

Observacions i pronòstics meteorològics de més de 4000 aeroports (METAR i TAF).

Les estacions disponibles són els punts grocs i vermells al mapa.

Posi el ratolí al punt desitjat per veure el nom de l'estació.

Feu clic per veure les observacions i els pronòstics meteorològics.

Per canviar el mapa: feu clic els botons verds amb una creu de color negre per apropar; al botó verd amb un guió per allunyar la imatge; o en les fletxes verdes per a mapes adjacents.


METAR-TAF: